Terminal Aerodrome Forecast
Issued by NWS

Home | Current Version | Previous Version | Text Only | Print | Product List | Glossary On
Versions: 1 2 3 4 5 6 7 8 9 10 11 12 13 14 15 16 17 18 19 20 21 22 23 24 25 26 27 28 29 30 31 32 33 34 35 36 37 38 39 40 41 42 43 44 45 46 47 48
000
FTUS41 KBOX 200805 AAA
TAFFMH
TAF AMD
KFMH 200805Z 2008/2106 13005KT P6SM -SHRA OVC004
     FM201300 16005KT 5SM BR OVC003
     FM202200 19008KT 1/2SM FG OVC002
     FM210000 22007KT 1SM -SHRA BR OVC003=

USA.gov is the U.S. government's official web portal to all federal, state and local government web resources and services.